Time,TemperatureF,DewpointF,PressureIn,WindDirection,WindDirectionDegrees,WindSpeedMPH,WindSpeedGustMPH,Humidity,HourlyPrecipIn,Conditions,Clouds,dailyrainin,SoftwareType,DateUTC
2013-05-16 00:03:00,51.3,50.7,29.66,NNW,337,1.1,-999.0,98,-99.99,,,0.00,Acu-Link.com,2013-05-16 04:03:00,
2013-05-16 00:18:00,51.1,50.5,29.66,NNW,337,2.7,-999.0,98,-99.99,,,0.00,Acu-Link.com,2013-05-16 04:18:00,
2013-05-16 00:34:00,49.8,49.3,29.66,NNW,337,0.0,-999.0,98,-99.99,,,0.00,Acu-Link.com,2013-05-16 04:34:00,
2013-05-16 00:49:00,49.5,48.9,29.66,NNW,337,1.1,-999.0,98,-99.99,,,0.00,Acu-Link.com,2013-05-16 04:49:00,
2013-05-16 01:04:00,48.7,48.2,29.67,NNW,337,0.0,-999.0,98,-99.99,,,0.00,Acu-Link.com,2013-05-16 05:04:00,
2013-05-16 01:19:00,48.7,48.2,29.67,NNW,337,0.0,-999.0,98,-99.99,,,0.00,Acu-Link.com,2013-05-16 05:19:00,
2013-05-16 01:35:00,48.4,47.8,29.68,NNW,337,1.1,-999.0,98,-99.99,,,0.00,Acu-Link.com,2013-05-16 05:35:00,
2013-05-16 01:50:00,48.4,47.8,29.68,NNW,337,1.1,-999.0,98,-99.99,,,0.00,Acu-Link.com,2013-05-16 05:50:00,
2013-05-16 02:05:00,48.0,47.5,29.68,NNW,337,0.0,-999.0,98,-99.99,,,0.00,Acu-Link.com,2013-05-16 06:05:00,
2013-05-16 02:20:00,47.3,46.8,29.68,NNW,337,0.0,-999.0,98,-99.99,,,0.00,Acu-Link.com,2013-05-16 06:20:00,
2013-05-16 02:36:00,47.5,46.9,29.68,NNW,337,1.6,-999.0,98,-99.99,,,0.00,Acu-Link.com,2013-05-16 06:36:00,
2013-05-16 02:51:00,47.3,46.8,29.68,NNW,337,2.7,-999.0,98,-99.99,,,0.00,Acu-Link.com,2013-05-16 06:51:00,
2013-05-16 03:06:00,46.8,46.2,29.68,NNW,337,0.0,-999.0,98,-99.99,,,0.00,Acu-Link.com,2013-05-16 07:06:00,
2013-05-16 03:22:00,46.0,45.5,29.68,NNW,337,1.6,-999.0,98,-99.99,,,0.00,Acu-Link.com,2013-05-16 07:22:00,
2013-05-16 03:37:00,45.3,44.8,29.68,NNW,337,2.2,-999.0,98,-99.99,,,0.00,Acu-Link.com,2013-05-16 07:37:00,
2013-05-16 03:52:00,45.5,45.0,29.68,NNW,337,2.2,-999.0,98,-99.99,,,0.00,Acu-Link.com,2013-05-16 07:52:00,
2013-05-16 04:07:00,45.3,44.8,29.68,NNW,337,0.0,-999.0,98,-99.99,,,0.00,Acu-Link.com,2013-05-16 08:07:00,
2013-05-16 04:23:00,45.0,44.4,29.68,NNW,337,1.6,-999.0,98,-99.99,,,0.00,Acu-Link.com,2013-05-16 08:23:00,
2013-05-16 04:38:00,44.6,44.1,29.68,NNW,337,0.0,-999.0,98,-99.99,,,0.00,Acu-Link.com,2013-05-16 08:38:00,
2013-05-16 04:53:00,44.6,44.1,29.68,NNW,337,1.6,-999.0,98,-99.99,,,0.00,Acu-Link.com,2013-05-16 08:53:00,
2013-05-16 05:08:00,44.2,43.7,29.68,NNW,337,0.0,-999.0,98,-99.99,,,0.00,Acu-Link.com,2013-05-16 09:08:00,
2013-05-16 05:23:00,44.1,43.5,29.68,NNW,337,0.0,-999.0,98,-99.99,,,0.00,Acu-Link.com,2013-05-16 09:23:00,
2013-05-16 05:38:00,44.8,44.2,29.69,NNW,337,0.0,-999.0,98,-99.99,,,0.00,Acu-Link.com,2013-05-16 09:38:00,
2013-05-16 05:54:00,43.9,43.4,29.68,NNW,337,0.0,-999.0,98,-99.99,,,0.00,Acu-Link.com,2013-05-16 09:54:00,
2013-05-16 06:09:00,44.1,43.5,29.69,NNW,337,0.0,-999.0,98,-99.99,,,0.00,Acu-Link.com,2013-05-16 10:09:00,
2013-05-16 06:24:00,44.8,44.2,29.69,NNW,337,1.1,-999.0,98,-99.99,,,0.00,Acu-Link.com,2013-05-16 10:24:00,
2013-05-16 06:40:00,49.1,48.6,29.71,NNW,337,0.0,-999.0,98,-99.99,,,0.00,Acu-Link.com,2013-05-16 10:40:00,
2013-05-16 06:55:00,54.0,53.4,29.71,NNW,337,1.1,-999.0,98,-99.99,,,0.00,Acu-Link.com,2013-05-16 10:55:00,
2013-05-16 07:10:00,57.2,56.6,29.71,NNW,337,0.0,-999.0,98,-99.99,,,0.00,Acu-Link.com,2013-05-16 11:10:00,
2013-05-16 07:25:00,61.2,57.9,29.72,NNW,337,0.0,-999.0,89,-99.99,,,0.00,Acu-Link.com,2013-05-16 11:25:00,
2013-05-16 07:41:00,62.1,56.8,29.73,NNW,337,2.7,-999.0,83,-99.99,,,0.00,Acu-Link.com,2013-05-16 11:41:00,
2013-05-16 07:56:00,65.1,58.8,29.73,WSW,247,3.1,-999.0,80,-99.99,,,0.00,Acu-Link.com,2013-05-16 11:56:00,
2013-05-16 08:11:00,67.5,58.5,29.73,West,270,1.6,-999.0,73,-99.99,,,0.00,Acu-Link.com,2013-05-16 12:11:00,
2013-05-16 08:27:00,68.9,57.9,29.74,SW,225,2.7,-999.0,68,-99.99,,,0.00,Acu-Link.com,2013-05-16 12:27:00,
2013-05-16 08:42:00,71.1,58.3,29.74,West,270,1.6,-999.0,64,-99.99,,,0.00,Acu-Link.com,2013-05-16 12:42:00,
2013-05-16 08:57:00,73.2,57.5,29.74,West,270,4.3,-999.0,58,-99.99,,,0.00,Acu-Link.com,2013-05-16 12:57:00,
2013-05-16 09:13:00,75.0,57.2,29.74,West,270,3.8,-999.0,54,-99.99,,,0.00,Acu-Link.com,2013-05-16 13:13:00,
2013-05-16 09:28:00,77.5,57.4,29.73,SW,225,1.6,-999.0,50,-99.99,,,0.00,Acu-Link.com,2013-05-16 13:28:00,
2013-05-16 09:43:00,78.6,56.7,29.73,West,270,1.6,-999.0,47,-99.99,,,0.00,Acu-Link.com,2013-05-16 13:43:00,
2013-05-16 10:36:00,80.1,54.9,29.73,South,180,1.6,-999.0,42,-99.99,,,0.00,Acu-Link.com,2013-05-16 14:36:00,
2013-05-16 10:51:00,80.4,51.0,29.72,ESE,112,2.7,-999.0,36,-99.99,,,0.00,Acu-Link.com,2013-05-16 14:51:00,
2013-05-16 11:06:00,78.4,50.0,29.72,South,180,2.2,-999.0,37,-99.99,,,0.00,Acu-Link.com,2013-05-16 15:06:00,
2013-05-16 11:21:00,79.3,50.0,29.71,SSW,202,2.2,-999.0,36,-99.99,,,0.00,Acu-Link.com,2013-05-16 15:21:00,
2013-05-16 11:36:00,78.4,48.5,29.71,NE,45,2.7,-999.0,35,-99.99,,,0.00,Acu-Link.com,2013-05-16 15:36:00,
2013-05-16 11:52:00,82.4,48.7,29.70,NNW,337,3.8,-999.0,31,-99.99,,,0.00,Acu-Link.com,2013-05-16 15:52:00,
2013-05-16 12:07:00,85.1,51.0,29.70,ESE,112,4.3,-999.0,31,-99.99,,,0.00,Acu-Link.com,2013-05-16 16:07:00,
2013-05-16 12:22:00,82.2,43.9,29.69,WSW,247,10.3,-999.0,26,-99.99,,,0.00,Acu-Link.com,2013-05-16 16:22:00,
2013-05-16 12:38:00,84.6,48.8,29.68,SW,225,3.1,-999.0,29,-99.99,,,0.00,Acu-Link.com,2013-05-16 16:38:00,
2013-05-16 12:53:00,86.9,48.9,29.68,SSE,157,2.7,-999.0,27,-99.99,,,0.00,Acu-Link.com,2013-05-16 16:53:00,
2013-05-16 13:08:00,84.6,46.9,29.68,SW,225,7.4,-999.0,27,-99.99,,,0.00,Acu-Link.com,2013-05-16 17:08:00,
2013-05-16 13:23:00,86.0,48.1,29.67,SSW,202,6.3,-999.0,27,-99.99,,,0.00,Acu-Link.com,2013-05-16 17:23:00,
2013-05-16 13:39:00,84.4,46.7,29.67,SSW,202,4.7,-999.0,27,-99.99,,,0.00,Acu-Link.com,2013-05-16 17:39:00,
2013-05-16 13:54:00,85.1,45.3,29.66,WSW,247,8.9,-999.0,25,-99.99,,,0.00,Acu-Link.com,2013-05-16 17:54:00,
2013-05-16 14:09:00,84.9,43.0,29.66,West,270,4.7,-999.0,23,-99.99,,,0.00,Acu-Link.com,2013-05-16 18:09:00,
2013-05-16 14:25:00,84.6,43.8,29.66,WSW,247,3.8,-999.0,24,-99.99,,,0.00,Acu-Link.com,2013-05-16 18:25:00,
2013-05-16 14:40:00,85.3,46.5,29.66,West,270,2.7,-999.0,26,-99.99,,,0.00,Acu-Link.com,2013-05-16 18:40:00,
2013-05-16 14:55:00,86.0,45.0,29.67,West,270,3.8,-999.0,24,-99.99,,,0.00,Acu-Link.com,2013-05-16 18:55:00,
2013-05-16 15:10:00,83.7,43.0,29.67,WNW,292,7.8,-999.0,24,-99.99,,,0.00,Acu-Link.com,2013-05-16 19:10:00,
2013-05-16 15:26:00,83.7,44.1,29.66,SE,135,6.3,-999.0,25,-99.99,,,0.00,Acu-Link.com,2013-05-16 19:26:00,
2013-05-16 15:41:00,85.3,43.3,29.67,WSW,247,4.3,-999.0,23,-99.99,,,0.00,Acu-Link.com,2013-05-16 19:41:00,
2013-05-16 15:56:00,81.9,43.6,29.66,West,270,4.3,-999.0,26,-99.99,,,0.00,Acu-Link.com,2013-05-16 19:56:00,
2013-05-16 16:11:00,81.0,45.7,29.66,West,270,2.7,-999.0,29,-99.99,,,0.00,Acu-Link.com,2013-05-16 20:11:00,
2013-05-16 16:27:00,79.5,44.5,29.66,West,270,2.2,-999.0,29,-99.99,,,0.00,Acu-Link.com,2013-05-16 20:27:00,
2013-05-16 16:42:00,81.3,47.8,29.66,West,270,3.1,-999.0,31,-99.99,,,0.00,Acu-Link.com,2013-05-16 20:42:00,
2013-05-16 16:57:00,79.7,46.4,29.66,West,270,2.2,-999.0,31,-99.99,,,0.00,Acu-Link.com,2013-05-16 20:57:00,
2013-05-16 17:12:00,80.4,46.1,29.66,NW,315,1.6,-999.0,30,-99.99,,,0.00,Acu-Link.com,2013-05-16 21:12:00,
2013-05-16 17:28:00,81.1,43.0,29.66,SSW,202,5.8,-999.0,26,-99.99,,,0.00,Acu-Link.com,2013-05-16 21:28:00,
2013-05-16 17:43:00,84.6,45.9,29.65,WNW,292,2.2,-999.0,26,-99.99,,,0.00,Acu-Link.com,2013-05-16 21:43:00,
2013-05-16 17:58:00,85.1,43.1,29.66,West,270,3.1,-999.0,23,-99.99,,,0.00,Acu-Link.com,2013-05-16 21:58:00,
2013-05-16 18:14:00,81.5,44.3,29.65,SSW,202,3.8,-999.0,27,-99.99,,,0.00,Acu-Link.com,2013-05-16 22:14:00,
2013-05-16 18:29:00,79.7,41.8,29.66,West,270,3.1,-999.0,26,-99.99,,,0.00,Acu-Link.com,2013-05-16 22:29:00,
2013-05-16 18:44:00,78.6,40.8,29.67,West,270,2.7,-999.0,26,-99.99,,,0.00,Acu-Link.com,2013-05-16 22:44:00,
2013-05-16 18:59:00,77.9,41.2,29.66,West,270,3.8,-999.0,27,-99.99,,,0.00,Acu-Link.com,2013-05-16 22:59:00,
2013-05-16 19:15:00,77.0,41.4,29.67,SSW,202,2.2,-999.0,28,-99.99,,,0.00,Acu-Link.com,2013-05-16 23:15:00,
2013-05-16 19:30:00,75.9,43.1,29.68,West,270,2.7,-999.0,31,-99.99,,,0.00,Acu-Link.com,2013-05-16 23:30:00,
2013-05-16 19:45:00,74.1,43.9,29.69,WSW,247,2.7,-999.0,34,-99.99,,,0.00,Acu-Link.com,2013-05-16 23:45:00,
2013-05-16 20:00:00,73.8,43.6,29.69,SW,225,4.3,-999.0,34,-99.99,,,0.00,Acu-Link.com,2013-05-17 00:00:00,
2013-05-16 20:20:00,72.9,44.3,29.71,WNW,292,3.8,-999.0,36,-99.99,,,0.00,Acu-Link.com,2013-05-17 00:20:00,
2013-05-16 20:35:00,71.6,43.9,29.71,WSW,247,1.6,-999.0,37,-99.99,,,0.00,Acu-Link.com,2013-05-17 00:35:00,
2013-05-16 20:51:00,71.1,44.8,29.72,West,270,3.8,-999.0,39,-99.99,,,0.00,Acu-Link.com,2013-05-17 00:51:00,
2013-05-16 21:06:00,70.0,45.2,29.73,SW,225,2.2,-999.0,41,-99.99,,,0.00,Acu-Link.com,2013-05-17 01:06:00,
2013-05-16 21:21:00,68.5,45.8,29.74,SW,225,0.0,-999.0,44,-99.99,,,0.00,Acu-Link.com,2013-05-17 01:21:00,
2013-05-16 21:37:00,67.1,45.6,29.74,SW,225,2.7,-999.0,46,-99.99,,,0.00,Acu-Link.com,2013-05-17 01:37:00,
2013-05-16 21:52:00,69.4,45.3,29.76,WSW,247,2.7,-999.0,42,-99.99,,,0.00,Acu-Link.com,2013-05-17 01:52:00,
2013-05-16 22:07:00,68.5,45.1,29.77,SW,225,2.7,-999.0,43,-99.99,,,0.00,Acu-Link.com,2013-05-17 02:07:00,
2013-05-16 22:22:00,67.3,46.4,29.77,NNW,337,4.7,-999.0,47,-99.99,,,0.00,Acu-Link.com,2013-05-17 02:22:00,
2013-05-16 22:37:00,66.4,46.1,29.78,NNW,337,1.1,-999.0,48,-99.99,,,0.00,Acu-Link.com,2013-05-17 02:37:00,
2013-05-16 22:53:00,65.7,46.5,29.79,NNW,337,0.0,-999.0,50,-99.99,,,0.00,Acu-Link.com,2013-05-17 02:53:00,
2013-05-16 23:08:00,66.4,45.5,29.79,NW,315,2.7,-999.0,47,-99.99,,,0.00,Acu-Link.com,2013-05-17 03:08:00,
2013-05-16 23:23:00,65.8,45.0,29.79,NNW,337,0.0,-999.0,47,-99.99,,,0.00,Acu-Link.com,2013-05-17 03:23:00,
2013-05-16 23:38:00,63.0,45.6,29.80,NNW,337,0.0,-999.0,53,-99.99,,,0.00,Acu-Link.com,2013-05-17 03:38:00,
2013-05-16 23:54:00,59.0,47.7,29.81,NNW,337,0.0,-999.0,66,-99.99,,,0.00,Acu-Link.com,2013-05-17 03:54:00,